Ana Sayfa
METAR-TAF:

METAR-TAF

Havaalanları :

Dothan, Alabama, Amerika Birleşik Devletleri

Enlem: 31-19-17N, Boylam: 085-26-59W, yükseklik: 122 m

Güncel hava durumu gözlemi

Rapor saat 08:53 UTC de 1 saat ve 36 dakika önce yapıldı.
Rüzgar kuzeydan 4 kt
Sıcaklık 22°C
Nem 83%
Basınç 1019 hPa
Görüş mesafesi: 16.1 km
Açık gökyüzü

METAR: KDHN 220853Z AUTO 36004KT 10SM CLR 22/19 A3010 RMK AO2 SLP186 T02170189 56009

Saat: 05:29 (10:29 UTC)

Tahmin

Rapor saat 05:39 UTC de 4 saat ve 50 dakika önce yapıldı.
Ayın 22'si saat 06 UTC'den ayın 23'si saat 06 UTC'ye kadar geçerli Tahmin
Rüzgar değişken yönden 4 kt
Görüş mesafesi: 10 km
Açık gökyüzü
Ayın 22'si saat 1600 UTC'den
Rüzgar kuzeydoğudan 5 kt
Görüş mesafesi: 10 km
9000 ft yükseklikte parçalı bulutlu

TAF: KDHN 220539Z 2206/2306 VRB04KT P6SM SKC FM221600 04005KT P6SM SCT090

4.000'den fazla havaalanı için hava durumu gözlemleri ve tahminleri (METAR ve TAF raporları).

Kullanılabilir istasyonlar harita üzerinde sarı ve kırmızı noktalarla gösterilir.

İstasyonun adını görmek için fareyi noktanın üzerinde gezdirin.

Sonrasında hava gözlem ve tahminlerini görmek için tıklayın.

Haritayı değiştirmek için: yaklaştırmak için siyah artı işaretli yeşil düğmeye ve uzaklaştırmak için de eksi işaretli düğmeye hızla tıklayın; bitişik haritalar için yeşil okları kullanın.


METAR-TAF: